CST,Max TemperatureF,Mean TemperatureF,Min TemperatureF,Max Dew PointF,MeanDew PointF,Min DewpointF,Max Humidity, Mean Humidity, Min Humidity, Max Sea Level PressureIn, Mean Sea Level PressureIn, Min Sea Level PressureIn, Max VisibilityMiles, Mean VisibilityMiles, Min VisibilityMiles, Max Wind SpeedMPH, Mean Wind SpeedMPH, Max Gust SpeedMPH,PrecipitationIn, CloudCover, Events, WindDirDegrees
2014-2-1,44,35,25,42,32,23,100,95,89,30.15,29.89,29.74,8,4,0,23,12,27,0.13,8,Fog-Rain,338
2014-2-2,25,21,16,22,17,13,96,82,68,30.33,30.26,30.13,10,9,4,21,12,24,0.00,6,,7
2014-2-3,41,26,11,19,12,6,92,63,33,30.38,30.28,30.19,10,10,10,13,5,15,0.00,0,,95
2014-2-4,31,28,25,26,22,12,92,70,47,30.18,29.98,29.86,10,3,0,18,10,24,0.16,8,Fog-Snow,72
2014-2-5,25,16,6,18,6,-3,84,74,64,30.63,30.42,30.01,10,7,2,26,15,32,T,7,Snow,331
2014-2-6,14,8,2,-2,-4,-6,76,64,51,30.66,30.58,30.48,10,10,10,15,8,18,0.00,2,,355
2014-2-7,22,12,1,12,4,-4,72,63,53,30.48,30.37,30.22,10,10,10,15,8,17,0.00,7,,134
2014-2-8,31,25,19,26,20,12,92,82,72,30.24,30.15,30.03,10,9,4,15,7,19,0.00,7,,164
2014-2-9,29,25,21,27,23,16,92,80,68,30.32,30.19,30.10,8,6,2,18,9,21,T,8,,16
2014-2-10,23,19,14,16,9,3,84,67,50,30.45,30.38,30.31,10,6,1,21,11,23,0.02,7,Snow,29
2014-2-11,30,20,9,5,1,-1,63,46,28,30.49,30.38,30.27,10,10,10,13,8,14,0.00,1,,71
2014-2-12,42,28,13,21,12,3,75,58,40,30.26,30.12,30.01,10,10,10,12,5,13,0.00,2,,192
2014-2-13,51,35,19,32,25,17,92,69,46,29.99,29.89,29.78,10,9,4,18,8,23,0.00,0,,216
2014-2-14,48,35,21,38,28,16,84,75,65,30.14,29.88,29.64,10,10,10,30,14,36,0.03,6,,310
2014-2-15,51,34,16,30,22,15,84,62,39,30.14,30.04,29.89,10,10,8,18,8,24,0.00,3,,180
2014-2-16,54,39,24,31,28,24,85,60,35,30.16,30.07,29.94,10,10,10,28,9,37,0.00,1,,62
2014-2-17,58,46,34,39,29,23,70,49,27,30.12,29.96,29.82,10,10,9,31,17,40,0.00,4,,220
2014-2-18,68,51,33,31,27,24,69,44,19,30.08,29.93,29.77,10,10,10,25,13,32,0.00,0,,195
2014-2-19,63,46,29,41,29,19,78,49,20,30.04,29.85,29.63,10,10,10,26,11,36,T,3,Rain,141
2014-2-20,73,54,34,56,42,19,87,63,39,29.86,29.60,29.38,10,10,3,47,20,62,0.16,6,Rain-Thunderstorm,194
2014-2-21,58,44,30,21,17,10,61,38,15,30.02,29.97,29.90,10,10,10,26,13,33,0.00,0,,241
2014-2-22,68,51,33,29,24,17,57,39,20,29.98,29.91,29.80,10,10,10,21,12,26,0.00,0,,167
2014-2-23,48,39,29,32,20,14,82,54,26,30.30,30.13,29.91,10,10,10,24,14,31,0.00,3,,34
2014-2-24,48,35,22,16,13,9,62,44,25,30.34,30.22,30.11,10,10,10,14,8,22,0.00,3,,110
2014-2-25,42,32,21,18,15,10,65,50,34,30.35,30.24,30.17,10,10,10,28,12,32,0.00,2,,9
2014-2-26,30,22,14,10,5,-2,80,54,27,30.38,30.25,30.07,10,10,5,26,10,31,T,3,Snow,322
2014-2-27,43,31,19,13,9,5,62,42,22,30.14,30.04,29.94,10,10,10,15,7,18,0.00,0,,31
2014-2-28,46,37,28,31,24,13,70,55,39,30.00,29.91,29.84,10,10,10,26,17,32,T,5,Rain,150